createdAt,value
2018-07-03T00:01:27.531Z,73.80
2018-07-03T00:03:55.167Z,74.30
2018-07-03T00:06:22.804Z,75.20
2018-07-03T00:08:50.470Z,74.40
2018-07-03T00:11:18.098Z,74.70
2018-07-03T00:13:45.717Z,74.40
2018-07-03T00:16:19.010Z,74.90
2018-07-03T00:18:46.650Z,75.30
2018-07-03T00:21:14.266Z,75.60
2018-07-03T00:23:41.971Z,75.40
2018-07-03T00:26:09.598Z,74.80
2018-07-03T00:28:37.252Z,74.40
2018-07-03T00:31:04.886Z,74.30
2018-07-03T00:33:32.508Z,74.50
2018-07-03T00:36:00.152Z,74.90
2018-07-03T00:38:27.776Z,75.10
2018-07-03T00:40:55.446Z,74.80
2018-07-03T00:43:23.108Z,75.30
2018-07-03T00:45:50.758Z,75.50
2018-07-03T00:48:18.403Z,75.90
2018-07-03T00:50:46.089Z,75.70
2018-07-03T00:53:13.757Z,75.90
2018-07-03T00:55:41.401Z,76.00
2018-07-03T00:58:09.053Z,76.00
2018-07-03T01:00:36.745Z,76.00
2018-07-03T01:03:04.936Z,75.70
2018-07-03T01:05:33.105Z,75.70
2018-07-03T01:08:00.764Z,75.90
2018-07-03T01:10:28.482Z,75.80
2018-07-03T01:12:56.582Z,75.90
2018-07-03T01:15:24.949Z,76.10
2018-07-03T01:17:52.626Z,76.20
2018-07-03T01:20:20.321Z,76.20
2018-07-03T01:22:48.406Z,76.30
2018-07-03T01:25:16.099Z,76.30
2018-07-03T01:27:43.755Z,76.30
2018-07-03T01:30:11.449Z,76.30
2018-07-03T01:32:39.085Z,76.10
2018-07-03T01:35:06.781Z,76.00
2018-07-03T01:37:34.421Z,76.10
2018-07-03T01:40:02.130Z,76.80
2018-07-03T01:42:29.757Z,77.10
2018-07-03T01:44:57.409Z,77.10
2018-07-03T01:47:25.076Z,75.90
2018-07-03T01:49:52.819Z,75.70
2018-07-03T01:52:20.440Z,75.80
2018-07-03T01:54:48.040Z,76.70
2018-07-03T01:57:15.732Z,76.50
2018-07-03T01:59:43.356Z,76.30
2018-07-03T02:02:11.039Z,76.00
2018-07-03T02:04:38.676Z,75.90
2018-07-03T02:07:06.569Z,76.60
2018-07-03T02:09:34.239Z,76.20
2018-07-03T02:12:01.857Z,76.00
2018-07-03T02:14:29.486Z,76.00
2018-07-03T02:16:57.138Z,76.60
2018-07-03T02:19:24.787Z,76.20
2018-07-03T02:21:52.462Z,75.80
2018-07-03T02:24:20.081Z,76.00
2018-07-03T02:26:47.739Z,76.70
2018-07-03T02:29:15.386Z,77.00
2018-07-03T02:31:43.008Z,76.90
2018-07-03T02:34:10.632Z,76.70
2018-07-03T02:36:38.262Z,77.00
2018-07-03T02:39:07.725Z,76.90
2018-07-03T02:41:35.399Z,76.70
2018-07-03T02:44:03.708Z,76.90
2018-07-03T02:46:31.374Z,77.00
2018-07-03T02:48:59.100Z,77.20
2018-07-03T02:51:26.803Z,76.90
2018-07-03T02:53:54.446Z,77.10
2018-07-03T02:56:22.170Z,77.20
2018-07-03T02:58:49.796Z,77.40
2018-07-03T03:01:17.442Z,77.40
2018-07-03T03:03:45.162Z,77.30
2018-07-03T03:06:12.771Z,77.40
2018-07-03T03:08:40.386Z,77.40
2018-07-03T03:11:08.056Z,77.80
2018-07-03T03:13:35.689Z,77.60
2018-07-03T03:16:03.387Z,77.50
2018-07-03T03:18:31.053Z,77.60
2018-07-03T03:20:58.670Z,77.30
2018-07-03T03:23:26.334Z,78.00
2018-07-03T03:25:54.179Z,77.10
2018-07-03T03:28:21.814Z,76.90
2018-07-03T03:30:49.549Z,77.30
2018-07-03T03:33:17.162Z,77.30
2018-07-03T03:35:44.838Z,77.40
2018-07-03T03:38:12.542Z,77.50
2018-07-03T03:40:40.190Z,77.20
2018-07-03T03:43:07.799Z,77.60
2018-07-03T03:45:35.480Z,77.40
2018-07-03T03:48:03.124Z,77.40
2018-07-03T03:50:30.846Z,76.80
2018-07-03T03:52:58.454Z,76.80
2018-07-03T03:55:26.114Z,76.50
2018-07-03T03:57:53.790Z,76.20
2018-07-03T04:00:21.426Z,76.30
2018-07-03T04:02:49.066Z,76.30
2018-07-03T04:05:16.746Z,76.00
2018-07-03T04:07:44.373Z,75.60
2018-07-03T04:10:11.999Z,75.80
2018-07-03T04:12:39.625Z,75.20
2018-07-03T04:15:07.574Z,75.30
2018-07-03T04:17:35.276Z,75.50
2018-07-03T04:20:02.986Z,75.20
2018-07-03T04:22:30.592Z,74.70
2018-07-03T04:24:58.258Z,74.90
2018-07-03T04:27:25.910Z,75.20
2018-07-03T04:29:53.560Z,75.30
2018-07-03T04:32:21.221Z,75.40
2018-07-03T04:34:48.879Z,76.10
2018-07-03T04:37:16.626Z,74.40
2018-07-03T04:39:44.338Z,74.00
2018-07-03T04:42:11.995Z,72.40
2018-07-03T04:44:39.653Z,72.20
2018-07-03T04:47:07.307Z,71.80
2018-07-03T04:49:34.926Z,70.30
2018-07-03T04:52:02.560Z,69.20
2018-07-03T04:54:30.172Z,67.80
2018-07-03T04:56:57.822Z,67.50
2018-07-03T04:59:25.449Z,68.40
2018-07-03T05:01:53.066Z,67.70
2018-07-03T05:04:20.729Z,66.90
2018-07-03T05:06:48.414Z,65.70
2018-07-03T05:09:16.103Z,66.60
2018-07-03T05:11:43.749Z,66.20
2018-07-03T05:14:11.373Z,65.10
2018-07-03T05:16:39.018Z,64.60
2018-07-03T05:19:07.030Z,63.80
2018-07-03T05:21:34.633Z,62.60
2018-07-03T05:24:02.253Z,63.50
2018-07-03T05:26:29.921Z,62.50
2018-07-03T05:28:57.555Z,60.40
2018-07-03T05:31:25.283Z,58.70
2018-07-03T05:33:53.144Z,56.20
2018-07-03T05:36:20.794Z,56.80
2018-07-03T05:38:48.440Z,56.20
2018-07-03T05:41:16.080Z,57.40
2018-07-03T05:43:43.712Z,56.80
2018-07-03T05:46:11.342Z,55.60
2018-07-03T05:48:38.993Z,54.90
2018-07-03T05:51:06.666Z,53.90
2018-07-03T05:53:34.270Z,54.80
2018-07-03T05:56:01.908Z,54.40
2018-07-03T05:58:29.517Z,53.90
2018-07-03T06:00:57.126Z,51.90
2018-07-03T06:03:24.746Z,52.50
2018-07-03T06:05:52.413Z,53.00
2018-07-03T06:08:20.049Z,51.60
2018-07-03T06:10:47.698Z,51.60
2018-07-03T06:13:15.304Z,50.70
2018-07-03T06:15:42.919Z,51.30
2018-07-03T06:18:10.577Z,50.20
2018-07-03T06:20:38.238Z,51.30
2018-07-03T06:23:05.890Z,49.90
2018-07-03T06:25:33.559Z,50.70
2018-07-03T06:28:01.217Z,50.70
2018-07-03T06:30:28.858Z,49.70
2018-07-03T06:32:56.476Z,50.80
2018-07-03T06:35:24.105Z,50.00
2018-07-03T06:37:51.770Z,51.30
2018-07-03T06:40:19.398Z,52.20
2018-07-03T06:42:47.054Z,52.00
2018-07-03T06:45:14.669Z,53.40
2018-07-03T06:47:42.326Z,52.00
2018-07-03T06:50:10.041Z,52.00
2018-07-03T06:52:37.730Z,50.50
2018-07-03T06:55:05.390Z,50.20
2018-07-03T06:57:33.106Z,51.10
2018-07-03T07:00:00.693Z,50.40
2018-07-03T07:02:28.359Z,51.60
2018-07-03T07:04:56.018Z,50.90
2018-07-03T07:07:23.670Z,50.50
2018-07-03T07:09:51.292Z,48.80
2018-07-03T07:12:18.948Z,50.30
2018-07-03T07:14:46.575Z,52.20
2018-07-03T07:17:14.233Z,49.20
2018-07-03T07:19:41.939Z,47.60
2018-07-03T07:22:09.574Z,50.20
2018-07-03T07:24:37.196Z,50.30
2018-07-03T07:27:05.132Z,48.30
2018-07-03T07:29:32.740Z,49.40
2018-07-03T07:32:00.642Z,50.20
2018-07-03T07:34:28.288Z,47.80
2018-07-03T07:36:55.982Z,49.10
2018-07-03T07:39:23.687Z,47.30
2018-07-03T07:41:51.338Z,48.00
2018-07-03T07:44:18.981Z,46.10
2018-07-03T07:46:46.643Z,48.50
2018-07-03T07:49:14.285Z,48.80
2018-07-03T07:51:41.964Z,46.60
2018-07-03T07:54:09.626Z,46.60
2018-07-03T07:56:37.302Z,47.10
2018-07-03T07:59:05.045Z,49.50
2018-07-03T08:01:32.702Z,48.90
2018-07-03T08:04:00.357Z,43.50
2018-07-03T08:06:28.010Z,45.50
2018-07-03T08:08:55.702Z,46.80
2018-07-03T08:11:24.015Z,46.10
2018-07-03T08:13:51.670Z,44.80
2018-07-03T08:16:19.341Z,46.70
2018-07-03T08:18:46.978Z,47.20
2018-07-03T08:21:14.646Z,43.40
2018-07-03T08:23:42.289Z,43.80
2018-07-03T08:26:09.954Z,45.40
2018-07-03T08:28:37.670Z,44.50
2018-07-03T08:31:05.340Z,42.20
2018-07-03T08:33:33.007Z,42.40
2018-07-03T08:36:00.631Z,41.40
2018-07-03T08:38:28.313Z,45.70
2018-07-03T08:40:55.948Z,41.50
2018-07-03T08:43:23.691Z,39.60
2018-07-03T08:45:51.342Z,39.00
2018-07-03T08:48:19.064Z,38.50
2018-07-03T08:50:46.714Z,38.30
2018-07-03T08:53:14.341Z,39.10
2018-07-03T08:55:42.045Z,37.10
2018-07-03T08:58:09.746Z,36.60
2018-07-03T09:00:37.373Z,33.80
2018-07-03T09:03:04.972Z,35.00
2018-07-03T09:05:32.597Z,36.50
2018-07-03T09:08:00.240Z,40.30
2018-07-03T09:10:27.894Z,40.50
2018-07-03T09:12:55.544Z,39.00
2018-07-03T09:15:23.183Z,37.40
2018-07-03T09:17:50.859Z,40.40
2018-07-03T09:20:18.482Z,37.90
2018-07-03T09:22:46.140Z,36.20
2018-07-03T09:25:13.766Z,35.90
2018-07-03T09:27:41.417Z,38.50
2018-07-03T09:30:09.056Z,35.10
2018-07-03T09:32:36.683Z,36.70
2018-07-03T09:35:04.365Z,36.20
2018-07-03T09:37:32.002Z,31.90
2018-07-03T09:39:59.706Z,33.50
2018-07-03T09:42:27.396Z,37.40
2018-07-03T09:44:55.007Z,33.90
2018-07-03T09:47:22.658Z,35.00
2018-07-03T09:49:50.268Z,32.70
2018-07-03T09:52:17.940Z,37.90
2018-07-03T09:54:45.607Z,32.30
2018-07-03T09:57:13.242Z,34.90
2018-07-03T09:59:40.918Z,31.00
2018-07-03T10:02:08.606Z,30.70
2018-07-03T10:04:36.273Z,34.20
2018-07-03T10:07:03.933Z,33.80
2018-07-03T10:09:31.635Z,35.40
2018-07-03T10:11:59.258Z,32.60
2018-07-03T10:14:26.865Z,31.10
2018-07-03T10:16:54.462Z,36.70
2018-07-03T10:19:22.087Z,30.10
2018-07-03T10:21:49.698Z,33.20
2018-07-03T10:24:17.336Z,33.90
2018-07-03T10:26:44.962Z,30.30
2018-07-03T10:29:12.564Z,32.50
2018-07-03T10:31:40.202Z,30.10
2018-07-03T10:34:07.836Z,30.30
2018-07-03T10:36:35.470Z,36.50
2018-07-03T10:39:05.355Z,32.40
2018-07-03T10:41:33.007Z,31.30
2018-07-03T10:44:00.666Z,31.90
2018-07-03T10:46:28.294Z,31.50
2018-07-03T10:48:55.962Z,31.90
2018-07-03T10:51:23.663Z,30.50
2018-07-03T10:53:51.313Z,30.30
2018-07-03T10:56:19.076Z,29.20
2018-07-03T10:58:46.730Z,34.30
2018-07-03T11:01:14.454Z,27.90
2018-07-03T11:03:42.159Z,29.00
2018-07-03T11:06:09.863Z,29.60
2018-07-03T11:08:37.517Z,28.30
2018-07-03T11:11:05.295Z,25.30
2018-07-03T11:13:32.938Z,27.10
2018-07-03T11:16:00.562Z,28.80
2018-07-03T11:18:28.220Z,31.10
2018-07-03T11:20:56.325Z,30.00
2018-07-03T11:23:24.071Z,26.10
2018-07-03T11:25:52.834Z,31.80
2018-07-03T11:28:20.480Z,29.20
2018-07-03T11:30:48.166Z,30.70
2018-07-03T11:33:15.800Z,27.90
2018-07-03T11:35:44.425Z,29.90
2018-07-03T11:38:12.087Z,27.60
2018-07-03T11:40:39.768Z,30.40
2018-07-03T11:43:07.432Z,28.30
2018-07-03T11:45:35.054Z,28.30
2018-07-03T11:48:03.795Z,25.10
2018-07-03T11:50:32.970Z,27.70
2018-07-03T11:53:00.591Z,29.70
2018-07-03T11:55:28.279Z,28.30
2018-07-03T11:57:56.094Z,28.50
2018-07-03T12:00:25.327Z,28.50
2018-07-03T12:02:52.990Z,28.20
2018-07-03T12:05:20.635Z,27.60
2018-07-03T12:07:48.305Z,25.50
2018-07-03T12:10:15.943Z,31.90
2018-07-03T12:12:43.575Z,25.90
2018-07-03T12:15:11.235Z,27.20
2018-07-03T12:17:38.910Z,33.30
2018-07-03T12:20:06.846Z,28.00
2018-07-03T12:22:34.792Z,26.80
2018-07-03T12:25:02.478Z,27.60
2018-07-03T12:27:30.173Z,28.50
2018-07-03T12:29:57.869Z,26.20
2018-07-03T12:32:25.530Z,29.20
2018-07-03T12:34:53.161Z,29.70
2018-07-03T12:37:20.794Z,27.40
2018-07-03T12:39:48.449Z,26.90
2018-07-03T12:42:16.096Z,26.60
2018-07-03T12:44:43.742Z,26.40
2018-07-03T12:47:11.418Z,26.40
2018-07-03T12:49:39.046Z,27.20
2018-07-03T12:52:06.788Z,25.30
2018-07-03T12:54:34.462Z,29.80
2018-07-03T12:57:02.110Z,27.30
2018-07-03T12:59:29.802Z,28.80
2018-07-03T13:01:57.513Z,24.70
2018-07-03T13:04:25.129Z,27.60
2018-07-03T13:06:52.794Z,26.10
2018-07-03T13:09:20.490Z,24.60
2018-07-03T13:11:48.166Z,23.40
2018-07-03T13:14:15.816Z,25.40
2018-07-03T13:16:43.483Z,26.80
2018-07-03T13:19:11.154Z,26.10
2018-07-03T13:21:38.778Z,25.80
2018-07-03T13:24:06.500Z,27.10
2018-07-03T13:26:34.180Z,25.00
2018-07-03T13:29:01.813Z,23.00
2018-07-03T13:31:29.528Z,29.10
2018-07-03T13:33:57.160Z,25.00
2018-07-03T13:36:24.841Z,24.10
2018-07-03T13:38:52.515Z,24.20
2018-07-03T13:41:20.151Z,24.60
2018-07-03T13:43:47.794Z,26.30
2018-07-03T13:46:15.419Z,26.10
2018-07-03T13:48:43.047Z,26.90
2018-07-03T13:51:10.728Z,22.70
2018-07-03T13:53:38.361Z,25.30
2018-07-03T13:56:06.000Z,24.00
2018-07-03T13:58:33.649Z,23.30
2018-07-03T14:01:01.329Z,26.90
2018-07-03T14:03:28.966Z,26.50
2018-07-03T14:05:56.724Z,23.20
2018-07-03T14:08:25.043Z,23.50
2018-07-03T14:10:52.663Z,22.30
2018-07-03T14:13:20.330Z,26.40
2018-07-03T14:15:47.974Z,23.20
2018-07-03T14:18:18.777Z,20.90
2018-07-03T14:20:46.442Z,23.90
2018-07-03T14:23:14.097Z,23.80
2018-07-03T14:25:41.753Z,24.50
2018-07-03T14:28:09.379Z,25.10
2018-07-03T14:30:37.025Z,26.30
2018-07-03T14:33:04.659Z,24.00
2018-07-03T14:35:32.410Z,23.50
2018-07-03T14:38:01.156Z,22.60
2018-07-03T14:40:29.050Z,21.60
2018-07-03T14:42:56.892Z,21.50
2018-07-03T14:45:24.829Z,23.50
2018-07-03T14:47:52.642Z,24.50
2018-07-03T14:50:20.453Z,21.70
2018-07-03T14:52:48.341Z,22.20
2018-07-03T14:55:16.149Z,21.70
2018-07-03T14:57:44.018Z,19.80
2018-07-03T15:00:11.861Z,21.70
2018-07-03T15:02:39.697Z,23.10
2018-07-03T15:05:07.536Z,22.90
2018-07-03T15:07:36.265Z,23.40
2018-07-03T15:10:04.193Z,23.00
2018-07-03T15:12:32.069Z,21.50
2018-07-03T15:14:59.986Z,22.60
2018-07-03T15:17:27.795Z,20.00
2018-07-03T15:19:56.984Z,23.20
2018-07-03T15:22:24.842Z,22.30
2018-07-03T15:24:53.197Z,21.30
2018-07-03T15:27:21.129Z,22.40
2018-07-03T15:29:49.013Z,21.90
2018-07-03T15:32:16.825Z,22.50
2018-07-03T15:34:44.674Z,23.40
2018-07-03T15:37:12.577Z,22.20
2018-07-03T15:39:40.518Z,23.00
2018-07-03T15:42:08.401Z,22.00
2018-07-03T15:44:47.349Z,24.30
2018-07-03T15:47:15.164Z,21.90
2018-07-03T15:49:43.051Z,22.20
2018-07-03T15:52:10.874Z,23.20
2018-07-03T15:54:38.719Z,22.30
2018-07-03T15:57:06.686Z,23.50
2018-07-03T15:59:34.562Z,24.20
2018-07-03T16:02:02.394Z,21.90
2018-07-03T16:05:07.532Z,23.80
2018-07-03T16:09:49.415Z,24.30
2018-07-03T16:12:17.271Z,24.60
2018-07-03T16:14:45.054Z,22.70
2018-07-03T16:17:12.998Z,24.20
2018-07-03T16:19:46.457Z,22.90
2018-07-03T16:22:14.314Z,24.00
2018-07-03T16:24:42.214Z,24.60
2018-07-03T16:27:10.058Z,23.60
2018-07-03T16:29:37.924Z,24.70
2018-07-03T16:32:05.752Z,24.70
2018-07-03T16:34:33.606Z,24.50
2018-07-03T16:37:01.488Z,24.40
2018-07-03T16:39:29.349Z,23.50
2018-07-03T16:41:57.166Z,22.70
2018-07-03T16:44:25.053Z,24.30
2018-07-03T16:46:52.894Z,24.70
2018-07-03T16:49:20.752Z,24.20
2018-07-03T16:51:48.615Z,25.00
2018-07-03T16:54:16.452Z,23.80
2018-07-03T16:56:44.389Z,22.60
2018-07-03T16:59:12.252Z,22.30
2018-07-03T17:01:40.090Z,22.90
2018-07-03T17:04:07.950Z,24.60
2018-07-03T17:06:35.854Z,24.30
2018-07-03T17:09:07.570Z,24.70
2018-07-03T17:11:35.514Z,24.90
2018-07-03T17:14:04.708Z,23.60
2018-07-03T17:16:32.600Z,23.40
2018-07-03T17:19:05.998Z,24.40
2018-07-03T17:21:33.995Z,25.60
2018-07-03T17:24:01.821Z,25.40
2018-07-03T17:26:29.957Z,25.50
2018-07-03T17:28:57.827Z,23.80
2018-07-03T17:31:25.735Z,23.80
2018-07-03T17:33:53.642Z,25.50
2018-07-03T17:36:21.575Z,27.20
2018-07-03T17:38:49.410Z,26.60
2018-07-03T17:41:28.586Z,24.80
2018-07-03T17:44:10.948Z,24.60
2018-07-03T17:46:38.811Z,24.60
2018-07-03T17:49:07.131Z,25.50
2018-07-03T17:51:35.012Z,25.70
2018-07-03T17:54:02.940Z,27.80
2018-07-03T17:56:30.867Z,28.50
2018-07-03T17:58:58.935Z,29.20
2018-07-03T18:01:26.929Z,27.20
2018-07-03T18:03:54.822Z,26.30
2018-07-03T18:06:22.719Z,27.30
2018-07-03T18:08:51.018Z,27.30
2018-07-03T18:11:19.267Z,26.80
2018-07-03T18:13:47.194Z,26.50
2018-07-03T18:16:15.202Z,27.30
2018-07-03T18:18:43.105Z,26.90
2018-07-03T18:21:11.488Z,28.00
2018-07-03T18:23:39.370Z,28.50
2018-07-03T18:26:07.645Z,28.70
2018-07-03T18:28:35.511Z,30.60
2018-07-03T18:31:03.864Z,31.20
2018-07-03T18:33:31.719Z,31.50
2018-07-03T18:35:59.665Z,32.40
2018-07-03T18:38:27.526Z,33.70
2018-07-03T18:40:55.364Z,33.90
2018-07-03T18:43:23.281Z,35.40
2018-07-03T18:45:51.098Z,36.50
2018-07-03T18:48:18.961Z,35.90
2018-07-03T18:50:46.826Z,35.60
2018-07-03T18:53:14.698Z,37.00
2018-07-03T18:55:42.523Z,38.30
2018-07-03T18:58:10.342Z,39.70
2018-07-03T19:00:38.261Z,40.30
2018-07-03T19:03:06.134Z,39.90
2018-07-03T19:05:33.949Z,40.40
2018-07-03T19:08:01.874Z,41.30
2018-07-03T19:10:29.706Z,42.30
2018-07-03T19:12:57.574Z,43.10
2018-07-03T19:15:25.450Z,43.70
2018-07-03T19:17:53.387Z,44.40
2018-07-03T19:20:21.251Z,44.80
2018-07-03T19:22:49.109Z,45.40
2018-07-03T19:25:17.087Z,46.40
2018-07-03T19:27:44.964Z,47.30
2018-07-03T19:30:12.800Z,47.40
2018-07-03T19:32:40.670Z,47.10
2018-07-03T19:35:08.539Z,46.30
2018-07-03T19:37:36.406Z,47.70
2018-07-03T19:40:05.098Z,48.60
2018-07-03T19:42:32.983Z,50.10
2018-07-03T19:45:00.846Z,49.70
2018-07-03T19:47:28.791Z,50.50
2018-07-03T19:49:56.639Z,51.10
2018-07-03T19:52:24.517Z,51.90
2018-07-03T19:54:52.361Z,52.00
2018-07-03T19:57:20.230Z,52.80
2018-07-03T19:59:48.132Z,53.70
2018-07-03T20:02:16.082Z,53.80
2018-07-03T20:04:43.886Z,54.10
2018-07-03T20:07:11.749Z,53.10
2018-07-03T20:09:39.616Z,53.80
2018-07-03T20:12:07.535Z,54.10
2018-07-03T20:14:35.378Z,55.00
2018-07-03T20:17:03.266Z,55.20
2018-07-03T20:19:31.179Z,55.10
2018-07-03T20:21:59.064Z,55.40
2018-07-03T20:24:26.982Z,55.50
2018-07-03T20:26:54.874Z,55.40
2018-07-03T20:29:22.715Z,55.80
2018-07-03T20:31:51.490Z,55.90
2018-07-03T20:34:19.363Z,56.10
2018-07-03T20:36:47.239Z,55.70
2018-07-03T20:39:15.083Z,55.20
2018-07-03T20:41:42.935Z,55.20
2018-07-03T20:44:10.794Z,55.70
2018-07-03T20:46:38.674Z,55.80
2018-07-03T20:49:06.576Z,55.80
2018-07-03T20:51:34.411Z,56.30
2018-07-03T20:54:02.353Z,56.30
2018-07-03T20:56:30.220Z,57.10
2018-07-03T20:58:58.066Z,57.50
2018-07-03T21:01:25.899Z,57.70
2018-07-03T21:03:53.782Z,58.20
2018-07-03T21:06:21.623Z,58.10
2018-07-03T21:08:49.457Z,58.00
2018-07-03T21:11:17.338Z,58.20
2018-07-03T21:13:45.233Z,58.30
2018-07-03T21:16:13.054Z,57.90
2018-07-03T21:18:40.950Z,58.30
2018-07-03T21:21:08.756Z,59.20
2018-07-03T21:23:36.580Z,60.00
2018-07-03T21:26:04.634Z,59.80
2018-07-03T21:28:32.528Z,60.20
2018-07-03T21:31:00.386Z,59.70
2018-07-03T21:33:28.268Z,59.90
2018-07-03T21:35:56.196Z,60.50
2018-07-03T21:38:24.107Z,61.10
2018-07-03T21:40:51.971Z,61.70
2018-07-03T21:43:19.831Z,62.10
2018-07-03T21:45:47.717Z,62.70
2018-07-03T21:48:15.858Z,62.70
2018-07-03T21:50:43.720Z,62.80
2018-07-03T21:53:11.604Z,63.10
2018-07-03T21:55:39.501Z,63.30
2018-07-03T21:58:07.433Z,63.80
2018-07-03T22:00:37.773Z,63.90
2018-07-03T22:03:07.174Z,64.00
2018-07-03T22:05:35.347Z,64.20
2018-07-03T22:08:03.320Z,64.30
2018-07-03T22:10:31.497Z,64.30
2018-07-03T22:12:59.419Z,64.20
2018-07-03T22:15:27.268Z,64.20
2018-07-03T22:17:55.180Z,64.10
2018-07-03T22:20:23.089Z,63.70
2018-07-03T22:22:51.252Z,63.60
2018-07-03T22:25:19.397Z,63.60
2018-07-03T22:27:47.269Z,63.90
2018-07-03T22:30:15.144Z,63.60
2018-07-03T22:32:43.080Z,64.00
2018-07-03T22:35:10.968Z,64.10
2018-07-03T22:37:38.828Z,64.30
2018-07-03T22:40:06.846Z,64.20
2018-07-03T22:42:34.716Z,64.10
2018-07-03T22:45:02.576Z,64.00
2018-07-03T22:47:30.437Z,64.00
2018-07-03T22:49:58.316Z,63.70
2018-07-03T22:52:26.186Z,63.90
2018-07-03T22:54:54.056Z,64.60
2018-07-03T22:57:21.905Z,65.20
2018-07-03T22:59:49.778Z,65.00
2018-07-03T23:02:17.631Z,65.50
2018-07-03T23:04:45.533Z,65.00
2018-07-03T23:07:13.397Z,65.50
2018-07-03T23:09:41.272Z,65.90
2018-07-03T23:12:13.628Z,66.10
2018-07-03T23:14:41.520Z,66.50
2018-07-03T23:17:09.380Z,66.70
2018-07-03T23:19:37.288Z,66.80
2018-07-03T23:22:05.163Z,67.10
2018-07-03T23:24:33.021Z,67.40
2018-07-03T23:27:00.896Z,67.30
2018-07-03T23:29:28.736Z,67.20
2018-07-03T23:31:56.611Z,67.00
2018-07-03T23:34:24.493Z,67.20
2018-07-03T23:36:52.367Z,67.50
2018-07-03T23:39:20.230Z,68.00
2018-07-03T23:41:48.093Z,68.30
2018-07-03T23:44:16.048Z,68.60
2018-07-03T23:46:55.148Z,67.60
2018-07-03T23:49:34.140Z,66.90
2018-07-03T23:52:13.236Z,67.50
2018-07-03T23:54:52.187Z,67.90
2018-07-03T23:57:31.155Z,67.90
